Time,TemperatureF,DewpointF,PressureIn,WindDirection,WindDirectionDegrees,WindSpeedMPH,WindSpeedGustMPH,Humidity,HourlyPrecipIn,Conditions,Clouds,dailyrainin,SolarRadiationWatts/m^2,SoftwareType,DateUTC
2013-01-27 00:22:00,44.0,44.0,-100.00,SSW,196,19.0,27.0,99,0.00,,,0.12,1.000000,,2013-01-27 08:22:00,
2013-01-27 00:31:00,44.0,44.0,-100.00,SSW,196,19.0,27.0,99,0.00,,,0.12,1.000000,,2013-01-27 08:31:00,
2013-01-27 00:41:00,44.0,44.0,-100.00,SSW,196,19.0,27.0,99,0.00,,,0.12,1.000000,,2013-01-27 08:41:00,
2013-01-27 00:52:00,44.0,44.0,-100.00,SSW,196,19.0,27.0,99,0.00,,,0.12,1.000000,,2013-01-27 08:52:00,
2013-01-27 01:21:00,43.0,43.0,-100.00,SSW,193,18.0,29.0,99,0.01,,,0.12,1.000000,,2013-01-27 09:21:00,
2013-01-27 01:32:00,43.0,43.0,-100.00,SSW,193,18.0,29.0,99,0.01,,,0.12,1.000000,,2013-01-27 09:32:00,
2013-01-27 01:41:00,43.0,43.0,-100.00,SSW,193,18.0,29.0,99,0.01,,,0.12,1.000000,,2013-01-27 09:41:00,
2013-01-27 01:51:00,43.0,43.0,-100.00,SSW,193,18.0,29.0,99,0.01,,,0.12,1.000000,,2013-01-27 09:51:00,
2013-01-27 02:21:00,43.0,43.0,-100.00,SSW,196,17.0,26.0,99,0.02,,,-99.99,1.000000,,2013-01-27 10:21:00,
2013-01-27 02:31:00,43.0,43.0,-100.00,SSW,196,17.0,26.0,99,0.02,,,-99.99,1.000000,,2013-01-27 10:31:00,
2013-01-27 02:41:00,43.0,43.0,-100.00,SSW,196,17.0,26.0,99,0.02,,,-99.99,1.000000,,2013-01-27 10:41:00,
2013-01-27 02:51:00,43.0,43.0,-100.00,SSW,196,17.0,26.0,99,0.02,,,-99.99,1.000000,,2013-01-27 10:51:00,
2013-01-27 03:21:00,42.0,42.0,-100.00,SSW,193,13.0,29.0,99,0.04,,,0.11,1.000000,,2013-01-27 11:21:00,
2013-01-27 03:32:00,42.0,42.0,-100.00,SSW,193,13.0,29.0,99,0.04,,,0.11,1.000000,,2013-01-27 11:32:00,
2013-01-27 03:42:00,42.0,42.0,-100.00,SSW,193,13.0,29.0,99,0.04,,,0.11,1.000000,,2013-01-27 11:42:00,
2013-01-27 03:52:00,42.0,42.0,-100.00,SSW,193,13.0,29.0,99,0.04,,,0.11,1.000000,,2013-01-27 11:52:00,
2013-01-27 04:21:00,41.0,41.0,-100.00,SSW,192,16.0,25.0,99,0.00,,,0.08,1.000000,,2013-01-27 12:21:00,
2013-01-27 04:32:00,41.0,41.0,-100.00,SSW,192,16.0,25.0,99,0.00,,,0.08,1.000000,,2013-01-27 12:32:00,
2013-01-27 04:42:00,41.0,41.0,-100.00,SSW,192,16.0,25.0,99,0.00,,,0.08,1.000000,,2013-01-27 12:42:00,
2013-01-27 04:52:00,41.0,41.0,-100.00,SSW,192,16.0,25.0,99,0.00,,,0.08,1.000000,,2013-01-27 12:52:00,
2013-01-27 05:22:00,41.0,41.0,-100.00,SSW,192,16.0,25.0,99,0.01,,,0.08,1.000000,,2013-01-27 13:22:00,
2013-01-27 05:32:00,41.0,41.0,-100.00,SSW,192,16.0,25.0,99,0.01,,,0.08,1.000000,,2013-01-27 13:32:00,
2013-01-27 05:42:00,41.0,41.0,-100.00,SSW,192,16.0,25.0,99,0.01,,,0.08,1.000000,,2013-01-27 13:42:00,
2013-01-27 05:52:00,41.0,41.0,-100.00,SSW,192,16.0,25.0,99,0.01,,,0.08,1.000000,,2013-01-27 13:52:00,
2013-01-27 06:52:00,38.0,38.0,-100.00,SSW,202,15.0,24.0,99,0.00,,,0.08,1.000000,,2013-01-27 14:52:00,
2013-01-27 07:22:00,37.0,37.0,-100.00,SSW,205,11.0,19.0,99,0.00,,,0.08,1.000000,,2013-01-27 15:22:00,
2013-01-27 07:32:00,37.0,37.0,-100.00,SSW,205,11.0,19.0,99,0.00,,,0.08,1.000000,,2013-01-27 15:32:00,
2013-01-27 07:42:00,37.0,37.0,-100.00,SSW,205,11.0,19.0,99,0.00,,,0.08,1.000000,,2013-01-27 15:42:00,
2013-01-27 07:52:00,37.0,37.0,-100.00,SSW,205,11.0,19.0,99,0.00,,,0.08,1.000000,,2013-01-27 15:52:00,
2013-01-27 08:32:00,37.0,37.0,-100.00,SSW,203,13.0,17.0,99,0.00,,,0.08,39.000000,,2013-01-27 16:32:00,
2013-01-27 08:42:00,37.0,37.0,-100.00,SSW,203,13.0,17.0,99,0.00,,,0.08,39.000000,,2013-01-27 16:42:00,
2013-01-27 08:52:00,37.0,37.0,-100.00,SSW,203,13.0,17.0,99,0.00,,,0.08,39.000000,,2013-01-27 16:52:00,
2013-01-27 09:21:00,37.0,37.0,-100.00,SW,216,9.0,24.0,99,0.00,,,0.08,123.000000,,2013-01-27 17:21:00,
2013-01-27 09:32:00,37.0,37.0,-100.00,SW,216,9.0,24.0,99,0.00,,,0.08,123.000000,,2013-01-27 17:32:00,
2013-01-27 09:42:00,37.0,37.0,-100.00,SW,216,9.0,24.0,99,0.00,,,0.08,123.000000,,2013-01-27 17:42:00,
2013-01-27 09:52:00,37.0,37.0,-100.00,SW,216,9.0,24.0,99,0.00,,,0.08,123.000000,,2013-01-27 17:52:00,
2013-01-27 10:32:00,34.0,34.0,-100.00,WNW,283,5.0,10.0,99,0.00,,,0.08,174.000000,,2013-01-27 18:32:00,
2013-01-27 10:42:00,34.0,34.0,-100.00,WNW,283,5.0,10.0,99,0.00,,,0.08,174.000000,,2013-01-27 18:42:00,
2013-01-27 10:52:00,34.0,34.0,-100.00,WNW,283,5.0,10.0,99,0.00,,,0.08,174.000000,,2013-01-27 18:52:00,
2013-01-27 11:22:00,35.0,35.0,-100.00,NW,306,4.0,13.0,99,0.00,,,0.08,279.000000,,2013-01-27 19:22:00,
2013-01-27 11:32:00,35.0,35.0,-100.00,NW,306,4.0,13.0,99,0.00,,,0.08,279.000000,,2013-01-27 19:32:00,
2013-01-27 11:41:00,35.0,35.0,-100.00,NW,306,4.0,13.0,99,0.00,,,0.08,279.000000,,2013-01-27 19:41:00,
2013-01-27 11:51:00,35.0,35.0,-100.00,NW,306,4.0,13.0,99,0.00,,,0.08,279.000000,,2013-01-27 19:51:00,
2013-01-27 12:22:00,38.0,36.0,-100.00,West,267,3.0,7.0,92,0.00,,,0.08,247.000000,,2013-01-27 20:22:00,
2013-01-27 12:32:00,38.0,36.0,-100.00,West,267,3.0,7.0,92,0.00,,,0.08,247.000000,,2013-01-27 20:32:00,
2013-01-27 12:42:00,38.0,36.0,-100.00,West,267,3.0,7.0,92,0.00,,,0.08,247.000000,,2013-01-27 20:42:00,
2013-01-27 12:52:00,38.0,36.0,-100.00,West,267,3.0,7.0,92,0.00,,,0.08,247.000000,,2013-01-27 20:52:00,
2013-01-27 13:22:00,36.0,30.0,-100.00,North,357,4.0,10.0,80,0.00,,,0.08,200.000000,,2013-01-27 21:22:00,
2013-01-27 13:32:00,36.0,30.0,-100.00,North,357,4.0,10.0,80,0.00,,,0.08,200.000000,,2013-01-27 21:32:00,
2013-01-27 13:42:00,36.0,30.0,-100.00,North,357,4.0,10.0,80,0.00,,,0.08,200.000000,,2013-01-27 21:42:00,
2013-01-27 13:52:00,36.0,30.0,-100.00,North,357,4.0,10.0,80,0.00,,,0.08,200.000000,,2013-01-27 21:52:00,
2013-01-27 14:21:00,34.0,27.0,-100.00,NNW,340,8.0,11.0,74,0.00,,,0.08,267.000000,,2013-01-27 22:21:00,
2013-01-27 14:32:00,34.0,27.0,-100.00,NNW,340,8.0,11.0,74,0.00,,,0.08,267.000000,,2013-01-27 22:32:00,
2013-01-27 14:42:00,34.0,27.0,-100.00,NNW,340,8.0,11.0,74,0.00,,,0.08,267.000000,,2013-01-27 22:42:00,
2013-01-27 14:51:00,34.0,27.0,-100.00,NNW,340,8.0,11.0,74,0.00,,,0.08,267.000000,,2013-01-27 22:51:00,
2013-01-27 15:21:00,36.0,29.0,-100.00,NNE,14,5.0,11.0,76,0.00,,,0.08,230.000000,,2013-01-27 23:21:00,
2013-01-27 15:32:00,36.0,29.0,-100.00,NNE,14,5.0,11.0,76,0.00,,,0.08,230.000000,,2013-01-27 23:32:00,
2013-01-27 15:41:00,36.0,29.0,-100.00,NNE,14,5.0,11.0,76,0.00,,,0.08,230.000000,,2013-01-27 23:41:00,
2013-01-27 15:52:00,36.0,29.0,-100.00,NNE,14,5.0,11.0,76,0.00,,,0.08,230.000000,,2013-01-27 23:52:00,
2013-01-27 16:21:00,32.0,26.0,-100.00,NNW,328,9.0,16.0,78,0.00,,,0.08,241.000000,,2013-01-28 00:21:00,
2013-01-27 16:32:00,32.0,26.0,-100.00,NNW,328,9.0,16.0,78,0.00,,,0.08,241.000000,,2013-01-28 00:32:00,
2013-01-27 16:41:00,32.0,26.0,-100.00,NNW,328,9.0,16.0,78,0.00,,,0.08,241.000000,,2013-01-28 00:41:00,
2013-01-27 16:51:00,32.0,26.0,-100.00,NNW,328,9.0,16.0,78,0.00,,,0.08,241.000000,,2013-01-28 00:51:00,
2013-01-27 17:32:00,31.0,25.0,-100.00,NNW,329,10.0,19.0,79,0.00,,,0.08,32.000000,,2013-01-28 01:32:00,
2013-01-27 17:42:00,31.0,25.0,-100.00,NNW,329,10.0,19.0,79,0.00,,,0.08,32.000000,,2013-01-28 01:42:00,
2013-01-27 17:51:00,31.0,25.0,-100.00,NNW,329,10.0,19.0,79,0.00,,,0.08,32.000000,,2013-01-28 01:51:00,
2013-01-27 18:21:00,30.0,25.0,-100.00,North,351,9.0,20.0,83,0.00,,,0.08,6.000000,,2013-01-28 02:21:00,
2013-01-27 18:32:00,30.0,25.0,-100.00,North,351,9.0,20.0,83,0.00,,,0.08,6.000000,,2013-01-28 02:32:00,
2013-01-27 18:41:00,30.0,25.0,-100.00,North,351,9.0,20.0,83,0.00,,,0.08,6.000000,,2013-01-28 02:41:00,
2013-01-27 18:52:00,30.0,25.0,-100.00,North,351,9.0,20.0,83,0.00,,,0.08,6.000000,,2013-01-28 02:52:00,
2013-01-27 19:21:00,30.0,26.0,-100.00,NNE,15,7.0,21.0,86,0.00,,,0.08,1.000000,,2013-01-28 03:21:00,
2013-01-27 19:32:00,30.0,26.0,-100.00,NNE,15,7.0,21.0,86,0.00,,,0.08,1.000000,,2013-01-28 03:32:00,
2013-01-27 19:41:00,30.0,26.0,-100.00,NNE,15,7.0,21.0,86,0.00,,,0.08,1.000000,,2013-01-28 03:41:00,
2013-01-27 19:52:00,30.0,26.0,-100.00,NNE,15,7.0,21.0,86,0.00,,,0.08,1.000000,,2013-01-28 03:52:00,
2013-01-27 20:21:00,30.0,24.0,-100.00,NNE,22,7.0,15.0,79,0.00,,,0.08,1.000000,,2013-01-28 04:21:00,
2013-01-27 20:32:00,30.0,24.0,-100.00,NNE,22,7.0,15.0,79,0.00,,,0.08,1.000000,,2013-01-28 04:32:00,
2013-01-27 20:41:00,30.0,24.0,-100.00,NNE,22,7.0,15.0,79,0.00,,,0.08,1.000000,,2013-01-28 04:41:00,
2013-01-27 20:52:00,30.0,24.0,-100.00,NNE,22,7.0,15.0,79,0.00,,,0.08,1.000000,,2013-01-28 04:52:00,
2013-01-27 21:21:00,30.0,26.0,-100.00,NNE,12,7.0,21.0,85,0.00,,,0.08,1.000000,,2013-01-28 05:21:00,
2013-01-27 21:31:00,30.0,26.0,-100.00,NNE,12,7.0,21.0,85,0.00,,,0.08,1.000000,,2013-01-28 05:31:00,
2013-01-27 21:41:00,30.0,26.0,-100.00,NNE,12,7.0,21.0,85,0.00,,,0.08,1.000000,,2013-01-28 05:41:00,
2013-01-27 21:52:00,30.0,26.0,-100.00,NNE,12,7.0,21.0,85,0.00,,,0.08,1.000000,,2013-01-28 05:52:00,
2013-01-27 22:21:00,29.0,25.0,-100.00,North,351,7.0,14.0,84,0.00,,,0.08,1.000000,,2013-01-28 06:21:00,
2013-01-27 22:32:00,29.0,25.0,-100.00,North,351,7.0,14.0,84,0.00,,,0.08,1.000000,,2013-01-28 06:32:00,
2013-01-27 22:42:00,29.0,25.0,-100.00,North,351,7.0,14.0,84,0.00,,,0.08,1.000000,,2013-01-28 06:42:00,
2013-01-27 22:52:00,29.0,25.0,-100.00,North,351,7.0,14.0,84,0.00,,,0.08,1.000000,,2013-01-28 06:52:00,
2013-01-27 23:21:00,29.0,24.0,-100.00,NNW,341,7.0,16.0,80,0.00,,,0.08,1.000000,,2013-01-28 07:21:00,
2013-01-27 23:31:00,29.0,24.0,-100.00,NNW,341,7.0,16.0,80,0.00,,,0.08,1.000000,,2013-01-28 07:31:00,
2013-01-27 23:41:00,29.0,24.0,-100.00,NNW,341,7.0,16.0,80,0.00,,,0.08,1.000000,,2013-01-28 07:41:00,
2013-01-27 23:51:00,29.0,24.0,-100.00,NNW,341,7.0,16.0,80,0.00,,,0.08,1.000000,,2013-01-28 07:51:00,